createdAt,value
2022-11-12T00:00:20.717Z,10.30
2022-11-12T00:03:15.863Z,10.30
2022-11-12T00:06:02.003Z,10.20
2022-11-12T00:08:48.211Z,10.20
2022-11-12T00:11:34.817Z,10.20
2022-11-12T00:14:21.010Z,10.20
2022-11-12T00:17:06.945Z,10.20
2022-11-12T00:19:54.164Z,10.20
2022-11-12T00:22:40.223Z,10.20
2022-11-12T00:25:26.402Z,10.10
2022-11-12T00:28:12.090Z,10.10
2022-11-12T00:30:58.313Z,10.10
2022-11-12T00:33:44.697Z,10.00
2022-11-12T00:36:31.095Z,10.00
2022-11-12T00:39:16.882Z,10.00
2022-11-12T00:42:03.273Z,10.00
2022-11-12T00:44:50.090Z,10.00
2022-11-12T00:47:36.444Z,10.00
2022-11-12T00:50:24.257Z,10.00
2022-11-12T00:53:10.330Z,10.00
2022-11-12T00:56:06.567Z,10.00
2022-11-12T00:58:52.821Z,10.00
2022-11-12T01:01:39.759Z,10.00
2022-11-12T01:04:26.398Z,9.90
2022-11-12T01:07:12.637Z,9.90
2022-11-12T01:09:58.690Z,9.90
2022-11-12T01:12:44.370Z,10.00
2022-11-12T01:15:30.696Z,10.00
2022-11-12T01:18:16.380Z,9.90
2022-11-12T01:21:03.847Z,9.90
2022-11-12T01:23:50.030Z,9.90
2022-11-12T01:26:36.545Z,9.80
2022-11-12T01:29:22.512Z,9.90
2022-11-12T01:32:08.946Z,9.90
2022-11-12T01:34:55.248Z,10.00
2022-11-12T01:37:41.563Z,9.90
2022-11-12T01:40:27.834Z,9.80
2022-11-12T01:43:14.732Z,9.80
2022-11-12T01:46:05.367Z,9.80
2022-11-12T01:49:01.669Z,9.70
2022-11-12T01:51:51.763Z,9.80
2022-11-12T01:54:39.742Z,9.80
2022-11-12T01:57:34.890Z,9.70
2022-11-12T02:00:21.757Z,9.80
2022-11-12T02:03:15.147Z,9.70
2022-11-12T02:06:08.033Z,9.80
2022-11-12T02:08:54.186Z,9.70
2022-11-12T02:11:40.201Z,9.70
2022-11-12T02:14:26.987Z,9.70
2022-11-12T02:17:13.233Z,9.70
2022-11-12T02:20:00.715Z,9.70
2022-11-12T02:22:46.918Z,9.70
2022-11-12T02:25:33.983Z,9.70
2022-11-12T02:28:20.635Z,9.70
2022-11-12T02:31:06.635Z,9.80
2022-11-12T02:33:53.377Z,9.70
2022-11-12T02:36:39.683Z,9.70
2022-11-12T02:39:29.158Z,9.50
2022-11-12T02:42:15.248Z,9.70
2022-11-12T02:50:34.537Z,9.60
2022-11-12T02:53:20.265Z,9.70
2022-11-12T02:56:06.770Z,9.70
2022-11-12T02:58:52.855Z,9.80
2022-11-12T03:01:38.796Z,9.70
2022-11-12T03:04:27.701Z,9.60
2022-11-12T03:07:15.709Z,9.60
2022-11-12T03:12:48.458Z,9.60
2022-11-12T03:15:34.232Z,9.70
2022-11-12T03:18:20.428Z,9.60
2022-11-12T03:21:06.564Z,9.60
2022-11-12T03:23:52.941Z,9.60
2022-11-12T03:26:38.701Z,9.60
2022-11-12T03:29:26.329Z,9.70
2022-11-12T03:32:12.408Z,9.70
2022-11-12T03:34:58.558Z,9.70
2022-11-12T03:37:44.455Z,9.70
2022-11-12T03:40:32.190Z,9.70
2022-11-12T03:43:17.885Z,9.70
2022-11-12T03:46:04.029Z,9.60
2022-11-12T03:48:49.937Z,9.70
2022-11-12T03:51:36.192Z,9.70
2022-11-12T03:54:22.438Z,9.70
2022-11-12T03:57:08.482Z,9.70
2022-11-12T03:59:54.185Z,9.70
2022-11-12T04:02:41.022Z,9.70
2022-11-12T04:05:46.560Z,9.70
2022-11-12T04:08:38.902Z,9.70
2022-11-12T04:11:24.970Z,9.80
2022-11-12T04:14:11.306Z,9.80
2022-11-12T04:17:15.775Z,9.90
2022-11-12T04:20:20.632Z,9.90
2022-11-12T04:23:06.649Z,9.90
2022-11-12T04:26:11.757Z,9.90
2022-11-12T04:29:16.616Z,9.90
2022-11-12T04:32:02.810Z,9.90
2022-11-12T04:34:48.969Z,9.80
2022-11-12T04:37:45.250Z,9.80
2022-11-12T04:40:50.574Z,9.90
2022-11-12T04:43:55.548Z,10.00
2022-11-12T04:46:41.533Z,10.00
2022-11-12T04:49:28.296Z,10.00
2022-11-12T04:52:14.654Z,9.90
2022-11-12T04:55:01.592Z,9.90
2022-11-12T04:57:47.671Z,9.90
2022-11-12T05:00:33.808Z,9.90
2022-11-12T05:03:19.825Z,9.90
2022-11-12T05:06:30.185Z,10.00
2022-11-12T05:09:16.074Z,10.00
2022-11-12T05:12:02.133Z,10.10
2022-11-12T05:14:47.969Z,10.00
2022-11-12T05:17:34.250Z,9.90
2022-11-12T05:20:20.171Z,10.00
2022-11-12T05:23:07.567Z,9.90
2022-11-12T05:25:53.799Z,9.90
2022-11-12T05:28:40.137Z,10.00
2022-11-12T05:31:26.132Z,10.00
2022-11-12T05:34:13.068Z,10.10
2022-11-12T05:36:59.216Z,10.00
2022-11-12T05:39:45.199Z,10.00
2022-11-12T05:42:30.993Z,10.10
2022-11-12T05:45:17.522Z,10.10
2022-11-12T05:48:03.685Z,10.00
2022-11-12T05:51:13.392Z,10.10
2022-11-12T05:54:00.103Z,10.10
2022-11-12T05:56:47.158Z,10.10
2022-11-12T05:59:33.175Z,10.10
2022-11-12T06:02:19.331Z,10.10
2022-11-12T06:05:05.293Z,10.10
2022-11-12T06:07:51.512Z,10.10
2022-11-12T06:10:37.580Z,10.10
2022-11-12T06:13:24.958Z,10.10
2022-11-12T06:16:10.923Z,10.10
2022-11-12T06:18:57.632Z,10.10
2022-11-12T06:21:43.543Z,10.00
2022-11-12T06:24:34.905Z,10.10
2022-11-12T06:27:21.811Z,10.10
2022-11-12T06:30:09.121Z,10.10
2022-11-12T06:32:55.415Z,10.00
2022-11-12T06:35:43.121Z,10.10
2022-11-12T06:38:33.985Z,10.10
2022-11-12T06:41:20.323Z,10.10
2022-11-12T06:44:07.011Z,10.20
2022-11-12T06:46:53.086Z,10.20
2022-11-12T06:49:38.889Z,10.20
2022-11-12T06:52:25.113Z,10.30
2022-11-12T06:55:11.358Z,10.30
2022-11-12T06:57:57.699Z,10.40
2022-11-12T07:00:43.967Z,10.40
2022-11-12T07:03:29.869Z,10.40
2022-11-12T07:06:20.675Z,10.40
2022-11-12T07:09:07.956Z,10.40
2022-11-12T07:11:53.824Z,10.40
2022-11-12T07:14:40.009Z,10.40
2022-11-12T07:17:26.397Z,10.40
2022-11-12T07:20:13.262Z,10.40
2022-11-12T07:23:02.269Z,10.50
2022-11-12T07:26:06.358Z,10.50
2022-11-12T07:28:53.210Z,10.60
2022-11-12T07:31:40.404Z,10.60
2022-11-12T07:34:26.546Z,10.60
2022-11-12T07:37:13.259Z,10.60
2022-11-12T07:40:00.295Z,10.60
2022-11-12T07:42:47.191Z,10.60
2022-11-12T07:45:33.693Z,10.60
2022-11-12T07:48:20.214Z,10.60
2022-11-12T07:51:11.977Z,10.70
2022-11-12T07:54:00.151Z,10.70
2022-11-12T07:56:46.635Z,10.70
2022-11-12T07:59:33.086Z,10.80
2022-11-12T08:02:19.406Z,10.80
2022-11-12T08:05:12.008Z,10.80
2022-11-12T08:08:00.782Z,10.90
2022-11-12T08:10:47.160Z,10.90
2022-11-12T08:33:06.904Z,11.20
2022-11-12T08:38:40.531Z,11.20
2022-11-12T08:41:26.818Z,11.20
2022-11-12T08:46:59.949Z,11.20
2022-11-12T08:52:34.708Z,11.20
2022-11-12T08:55:21.359Z,11.20
2022-11-12T08:58:07.485Z,11.40
2022-11-12T09:00:55.201Z,11.20
2022-11-12T09:03:41.137Z,11.20
2022-11-12T09:06:27.611Z,11.20
2022-11-12T09:09:13.634Z,11.20
2022-11-12T09:12:04.565Z,11.20
2022-11-12T09:15:09.665Z,11.30
2022-11-12T09:18:06.222Z,11.30
2022-11-12T09:20:52.428Z,11.30
2022-11-12T09:23:39.053Z,11.40
2022-11-12T09:26:25.111Z,11.40
2022-11-12T09:29:11.754Z,11.40
2022-11-12T09:31:59.848Z,11.40
2022-11-12T09:34:45.953Z,11.50
2022-11-12T09:37:32.050Z,11.60
2022-11-12T09:40:20.469Z,11.60
2022-11-12T09:43:18.879Z,11.60
2022-11-12T09:46:28.892Z,11.60
2022-11-12T09:49:31.575Z,11.70
2022-11-12T09:52:25.156Z,11.70
2022-11-12T09:55:26.473Z,11.80
2022-11-12T09:58:18.448Z,11.80
2022-11-12T10:01:21.463Z,12.00
2022-11-12T10:04:28.860Z,11.90
2022-11-12T10:07:26.858Z,12.00
2022-11-12T10:10:43.600Z,12.00
2022-11-12T10:13:48.429Z,12.10
2022-11-12T10:16:56.431Z,12.10
2022-11-12T10:19:48.654Z,12.10
2022-11-12T10:23:13.871Z,12.10
2022-11-12T10:26:02.641Z,12.20
2022-11-12T10:28:54.088Z,12.20
2022-11-12T10:31:40.485Z,12.30
2022-11-12T10:34:26.884Z,12.30
2022-11-12T10:37:21.108Z,12.40
2022-11-12T10:40:25.367Z,12.40
2022-11-12T10:43:17.388Z,12.50
2022-11-12T10:46:21.799Z,12.50
2022-11-12T10:49:22.098Z,12.40
2022-11-12T10:52:22.410Z,12.50
2022-11-12T10:55:19.130Z,12.60
2022-11-12T10:58:11.956Z,12.60
2022-11-12T11:01:00.826Z,12.60
2022-11-12T11:03:58.179Z,12.50
2022-11-12T11:06:44.593Z,12.70
2022-11-12T11:09:31.449Z,12.80
2022-11-12T11:12:29.891Z,12.00
2022-11-12T11:15:16.634Z,12.70
2022-11-12T11:18:02.940Z,13.00
2022-11-12T11:21:15.977Z,13.30
2022-11-12T11:24:26.747Z,12.60
2022-11-12T11:27:29.489Z,13.10
2022-11-12T11:30:23.292Z,12.40
2022-11-12T11:33:56.631Z,12.70
2022-11-12T11:37:17.014Z,13.20
2022-11-12T11:40:21.702Z,12.60
2022-11-12T11:43:32.457Z,13.10
2022-11-12T11:46:27.429Z,13.30
2022-11-12T11:49:21.474Z,12.10
2022-11-12T11:52:38.043Z,12.30
2022-11-12T11:55:37.537Z,12.80
2022-11-12T11:59:05.413Z,13.20
2022-11-12T12:02:37.035Z,13.10
2022-11-12T12:05:38.302Z,12.80
2022-11-12T12:08:53.418Z,13.20
2022-11-12T12:11:46.227Z,13.50
2022-11-12T12:14:38.983Z,13.00
2022-11-12T12:17:32.715Z,12.80
2022-11-12T12:20:50.817Z,12.90
2022-11-12T12:23:37.933Z,13.00
2022-11-12T12:26:55.279Z,12.40
2022-11-12T12:30:26.753Z,12.80
2022-11-12T12:33:37.279Z,12.80
2022-11-12T12:36:30.145Z,12.80
2022-11-12T12:39:58.382Z,12.90
2022-11-12T12:42:54.135Z,12.90
2022-11-12T12:45:42.724Z,12.90
2022-11-12T12:48:42.729Z,12.80
2022-11-12T12:51:31.223Z,12.90
2022-11-12T12:54:37.407Z,12.40
2022-11-12T12:57:33.213Z,12.90
2022-11-12T13:00:29.784Z,13.00
2022-11-12T13:03:49.498Z,12.50
2022-11-12T13:06:40.035Z,12.80
2022-11-12T13:09:28.414Z,12.70
2022-11-12T13:12:19.811Z,13.00
2022-11-12T13:15:16.730Z,12.30
2022-11-12T13:21:12.712Z,12.60
2022-11-12T13:24:07.886Z,12.60
2022-11-12T13:26:57.376Z,12.50
2022-11-12T13:29:45.844Z,12.50
2022-11-12T13:32:56.185Z,12.50
2022-11-12T13:35:42.827Z,12.50
2022-11-12T13:38:29.385Z,12.40
2022-11-12T13:41:40.235Z,12.40
2022-11-12T13:44:28.061Z,12.50
2022-11-12T13:47:22.413Z,13.20
2022-11-12T13:50:13.923Z,12.40
2022-11-12T13:55:54.233Z,12.60
2022-11-12T14:01:34.964Z,11.70
2022-11-12T14:04:26.043Z,12.40
2022-11-12T14:07:56.426Z,12.40
2022-11-12T14:11:02.324Z,13.00
2022-11-12T14:14:19.636Z,12.40
2022-11-12T14:17:22.373Z,12.40
2022-11-12T14:20:32.514Z,12.30
2022-11-12T14:23:24.937Z,12.20
2022-11-12T14:26:12.951Z,11.90
2022-11-12T14:34:35.145Z,12.10
2022-11-12T14:37:43.630Z,12.10
2022-11-12T14:40:36.447Z,12.20
2022-11-12T14:43:27.956Z,12.10
2022-11-12T14:46:36.757Z,12.10
2022-11-12T14:52:29.059Z,12.10
2022-11-12T14:55:25.082Z,12.10
2022-11-12T14:58:15.566Z,12.10
2022-11-12T15:01:59.355Z,12.20
2022-11-12T15:07:23.869Z,12.00
2022-11-12T15:10:45.337Z,12.10
2022-11-12T15:13:40.105Z,12.00
2022-11-12T15:16:29.610Z,11.90
2022-11-12T15:19:24.635Z,11.90
2022-11-12T15:22:21.263Z,11.90
2022-11-12T15:25:25.336Z,11.80
2022-11-12T15:28:23.162Z,11.80
2022-11-12T15:31:21.941Z,11.80
2022-11-12T15:34:29.880Z,11.80
2022-11-12T15:37:18.721Z,11.70
2022-11-12T15:40:12.611Z,11.70
2022-11-12T15:45:56.596Z,11.90
2022-11-12T16:00:04.538Z,11.70
2022-11-12T16:03:01.599Z,11.30
2022-11-12T16:17:16.747Z,11.60
2022-11-12T16:20:09.226Z,11.70
2022-11-12T16:25:44.179Z,11.60
2022-11-12T16:45:23.151Z,11.60
2022-11-12T16:48:21.698Z,11.60
2022-11-12T16:51:16.969Z,11.60
2022-11-12T17:02:24.236Z,11.70
2022-11-12T17:05:15.629Z,11.60
2022-11-12T17:13:38.915Z,11.50
2022-11-12T17:41:30.772Z,11.50
2022-11-12T17:44:19.796Z,11.50
2022-11-12T17:55:28.972Z,11.40
2022-11-12T17:58:15.185Z,11.80
2022-11-12T18:01:15.453Z,11.50
2022-11-12T18:23:29.480Z,11.50
2022-11-12T18:26:18.461Z,11.40
2022-11-12T18:40:18.139Z,11.40
2022-11-12T18:43:07.393Z,10.90
2022-11-12T18:45:59.941Z,11.30
2022-11-12T19:05:33.956Z,10.80
2022-11-12T19:08:21.563Z,10.60
2022-11-12T19:11:11.406Z,11.20
2022-11-12T19:13:59.406Z,10.70
2022-11-12T19:19:34.438Z,11.20
2022-11-12T19:22:20.792Z,11.20
2022-11-12T19:25:10.930Z,11.20
2022-11-12T19:27:58.969Z,11.10
2022-11-12T19:30:46.380Z,11.10
2022-11-12T19:33:33.634Z,11.60
2022-11-12T19:36:24.210Z,11.10
2022-11-12T19:44:49.573Z,11.40
2022-11-12T19:53:12.980Z,10.80
2022-11-12T19:56:04.990Z,11.00
2022-11-12T19:58:56.514Z,10.90
2022-11-12T20:10:05.190Z,11.40
2022-11-12T20:15:40.299Z,10.90
2022-11-12T20:35:19.415Z,11.50
2022-11-12T20:41:03.115Z,10.80
2022-11-12T20:43:53.468Z,10.70
2022-11-12T20:55:00.260Z,11.10
2022-11-12T20:57:47.220Z,10.80
2022-11-12T21:06:18.178Z,10.70
2022-11-12T21:17:26.772Z,10.50
2022-11-12T21:20:13.287Z,11.20
2022-11-12T21:28:38.643Z,10.80
2022-11-12T21:31:27.094Z,10.70
2022-11-12T21:37:01.392Z,10.70
2022-11-12T21:56:33.614Z,10.70
2022-11-12T22:16:15.791Z,10.70
2022-11-12T22:19:02.124Z,10.70
2022-11-12T22:21:48.609Z,10.70
2022-11-12T22:24:34.877Z,10.70
2022-11-12T22:27:21.306Z,10.70
2022-11-12T22:30:08.481Z,10.70
2022-11-12T22:32:54.969Z,10.70
2022-11-12T22:38:33.646Z,10.70
2022-11-12T22:41:23.076Z,10.70
2022-11-12T22:46:56.710Z,10.70
2022-11-12T23:09:14.725Z,10.70
2022-11-12T23:31:29.869Z,10.70
2022-11-12T23:51:02.758Z,10.60
